sensor_id;sensor_type;location;lat;lon;timestamp;P1;durP1;ratioP1;P2;durP2;ratioP2
17592;SDS011;8915;51.760;14.300;2023-06-10T00:01:13;9.53;;;6.70;;
17592;SDS011;8915;51.760;14.300;2023-06-10T00:03:41;12.83;;;6.23;;
17592;SDS011;8915;51.760;14.300;2023-06-10T00:06:08;12.33;;;6.43;;
17592;SDS011;8915;51.760;14.300;2023-06-10T00:08:35;8.40;;;6.37;;
17592;SDS011;8915;51.760;14.300;2023-06-10T00:11:04;10.03;;;7.17;;
17592;SDS011;8915;51.760;14.300;2023-06-10T00:13:31;10.13;;;6.90;;
17592;SDS011;8915;51.760;14.300;2023-06-10T00:15:57;9.60;;;6.70;;
17592;SDS011;8915;51.760;14.300;2023-06-10T00:18:24;9.27;;;6.30;;
17592;SDS011;8915;51.760;14.300;2023-06-10T00:20:53;11.80;;;6.40;;
17592;SDS011;8915;51.760;14.300;2023-06-10T00:23:20;9.80;;;6.97;;
17592;SDS011;8915;51.760;14.300;2023-06-10T00:25:46;9.17;;;6.50;;
17592;SDS011;8915;51.760;14.300;2023-06-10T00:28:13;11.10;;;6.90;;
17592;SDS011;8915;51.760;14.300;2023-06-10T00:30:39;8.50;;;6.67;;
17592;SDS011;8915;51.760;14.300;2023-06-10T00:33:09;9.93;;;6.93;;
17592;SDS011;8915;51.760;14.300;2023-06-10T00:35:36;11.83;;;7.40;;
17592;SDS011;8915;51.760;14.300;2023-06-10T00:38:04;11.53;;;7.03;;
17592;SDS011;8915;51.760;14.300;2023-06-10T00:40:33;11.00;;;6.80;;
17592;SDS011;8915;51.760;14.300;2023-06-10T00:42:59;11.03;;;6.90;;
17592;SDS011;8915;51.760;14.300;2023-06-10T00:45:26;11.20;;;7.43;;
17592;SDS011;8915;51.760;14.300;2023-06-10T00:47:52;9.67;;;7.10;;
17592;SDS011;8915;51.760;14.300;2023-06-10T00:50:18;10.10;;;6.97;;
17592;SDS011;8915;51.760;14.300;2023-06-10T00:52:45;8.43;;;6.90;;
17592;SDS011;8915;51.760;14.300;2023-06-10T00:55:15;10.23;;;6.50;;
17592;SDS011;8915;51.760;14.300;2023-06-10T00:57:43;9.90;;;6.93;;
17592;SDS011;8915;51.760;14.300;2023-06-10T01:00:11;10.80;;;6.97;;
17592;SDS011;8915;51.760;14.300;2023-06-10T01:02:38;8.17;;;6.83;;
17592;SDS011;8915;51.760;14.300;2023-06-10T01:05:05;11.27;;;7.57;;
17592;SDS011;8915;51.760;14.300;2023-06-10T01:07:34;13.03;;;7.47;;
17592;SDS011;8915;51.760;14.300;2023-06-10T01:10:08;13.47;;;7.40;;
17592;SDS011;8915;51.760;14.300;2023-06-10T01:12:40;11.23;;;7.10;;
17592;SDS011;8915;51.760;14.300;2023-06-10T01:15:13;9.63;;;7.00;;
17592;SDS011;8915;51.760;14.300;2023-06-10T01:17:53;11.47;;;7.57;;
17592;SDS011;8915;51.760;14.300;2023-06-10T01:20:20;8.77;;;7.07;;
17592;SDS011;8915;51.760;14.300;2023-06-10T01:22:48;9.57;;;7.17;;
17592;SDS011;8915;51.760;14.300;2023-06-10T01:25:14;10.70;;;6.57;;
17592;SDS011;8915;51.760;14.300;2023-06-10T01:27:42;8.77;;;7.13;;
17592;SDS011;8915;51.760;14.300;2023-06-10T01:30:12;9.87;;;6.90;;
17592;SDS011;8915;51.760;14.300;2023-06-10T01:32:43;8.60;;;6.50;;
17592;SDS011;8915;51.760;14.300;2023-06-10T01:35:14;7.73;;;6.80;;
17592;SDS011;8915;51.760;14.300;2023-06-10T01:37:41;12.90;;;7.57;;
17592;SDS011;8915;51.760;14.300;2023-06-10T01:40:12;15.27;;;8.70;;
17592;SDS011;8915;51.760;14.300;2023-06-10T01:42:42;11.77;;;7.97;;
17592;SDS011;8915;51.760;14.300;2023-06-10T01:45:09;11.37;;;7.90;;
17592;SDS011;8915;51.760;14.300;2023-06-10T01:47:36;10.10;;;7.47;;
17592;SDS011;8915;51.760;14.300;2023-06-10T01:50:02;10.90;;;7.30;;
17592;SDS011;8915;51.760;14.300;2023-06-10T01:52:29;12.43;;;7.60;;
17592;SDS011;8915;51.760;14.300;2023-06-10T01:54:56;9.03;;;7.50;;
17592;SDS011;8915;51.760;14.300;2023-06-10T01:57:23;11.80;;;8.30;;
17592;SDS011;8915;51.760;14.300;2023-06-10T01:59:50;10.03;;;7.80;;
17592;SDS011;8915;51.760;14.300;2023-06-10T02:02:16;10.70;;;8.00;;
17592;SDS011;8915;51.760;14.300;2023-06-10T02:04:42;10.33;;;8.37;;
17592;SDS011;8915;51.760;14.300;2023-06-10T02:07:09;8.77;;;7.40;;
17592;SDS011;8915;51.760;14.300;2023-06-10T02:09:37;8.63;;;6.87;;
17592;SDS011;8915;51.760;14.300;2023-06-10T02:12:03;9.20;;;7.63;;
17592;SDS011;8915;51.760;14.300;2023-06-10T02:14:32;8.67;;;7.57;;
17592;SDS011;8915;51.760;14.300;2023-06-10T02:16:59;9.17;;;7.20;;
17592;SDS011;8915;51.760;14.300;2023-06-10T02:19:25;8.60;;;7.30;;
17592;SDS011;8915;51.760;14.300;2023-06-10T02:21:53;10.10;;;7.37;;
17592;SDS011;8915;51.760;14.300;2023-06-10T02:24:19;10.07;;;7.37;;
17592;SDS011;8915;51.760;14.300;2023-06-10T02:26:45;12.40;;;8.83;;
17592;SDS011;8915;51.760;14.300;2023-06-10T02:29:13;9.13;;;7.80;;
17592;SDS011;8915;51.760;14.300;2023-06-10T02:31:40;8.93;;;7.70;;
17592;SDS011;8915;51.760;14.300;2023-06-10T02:34:07;10.33;;;8.33;;
17592;SDS011;8915;51.760;14.300;2023-06-10T02:36:34;11.53;;;8.37;;
17592;SDS011;8915;51.760;14.300;2023-06-10T02:39:02;9.10;;;8.20;;
17592;SDS011;8915;51.760;14.300;2023-06-10T02:41:29;9.37;;;7.70;;
17592;SDS011;8915;51.760;14.300;2023-06-10T02:43:57;12.60;;;8.23;;
17592;SDS011;8915;51.760;14.300;2023-06-10T02:46:24;10.80;;;8.40;;
17592;SDS011;8915;51.760;14.300;2023-06-10T02:48:53;10.97;;;8.00;;
17592;SDS011;8915;51.760;14.300;2023-06-10T02:51:23;10.50;;;8.40;;
17592;SDS011;8915;51.760;14.300;2023-06-10T02:53:55;10.43;;;8.37;;
17592;SDS011;8915;51.760;14.300;2023-06-10T02:56:22;8.83;;;7.93;;
17592;SDS011;8915;51.760;14.300;2023-06-10T02:58:49;10.63;;;8.27;;
17592;SDS011;8915;51.760;14.300;2023-06-10T03:01:18;8.97;;;8.07;;
17592;SDS011;8915;51.760;14.300;2023-06-10T03:03:54;8.70;;;7.80;;
17592;SDS011;8915;51.760;14.300;2023-06-10T03:06:21;10.43;;;8.37;;
17592;SDS011;8915;51.760;14.300;2023-06-10T03:08:49;10.67;;;8.30;;
17592;SDS011;8915;51.760;14.300;2023-06-10T03:11:18;14.83;;;9.27;;
17592;SDS011;8915;51.760;14.300;2023-06-10T03:13:46;14.67;;;8.33;;
17592;SDS011;8915;51.760;14.300;2023-06-10T03:16:15;11.17;;;8.47;;
17592;SDS011;8915;51.760;14.300;2023-06-10T03:18:43;11.53;;;8.70;;
17592;SDS011;8915;51.760;14.300;2023-06-10T03:21:11;11.63;;;8.83;;
17592;SDS011;8915;51.760;14.300;2023-06-10T03:23:38;10.23;;;8.20;;
17592;SDS011;8915;51.760;14.300;2023-06-10T03:26:05;13.33;;;9.30;;
17592;SDS011;8915;51.760;14.300;2023-06-10T03:28:33;14.03;;;9.47;;
17592;SDS011;8915;51.760;14.300;2023-06-10T03:30:59;10.83;;;9.40;;
17592;SDS011;8915;51.760;14.300;2023-06-10T03:33:28;15.33;;;10.83;;
17592;SDS011;8915;51.760;14.300;2023-06-10T03:35:55;11.83;;;10.33;;
17592;SDS011;8915;51.760;14.300;2023-06-10T03:38:24;12.60;;;8.97;;
17592;SDS011;8915;51.760;14.300;2023-06-10T03:40:52;11.73;;;9.77;;
17592;SDS011;8915;51.760;14.300;2023-06-10T03:43:19;11.70;;;10.07;;
17592;SDS011;8915;51.760;14.300;2023-06-10T03:45:48;14.83;;;10.17;;
17592;SDS011;8915;51.760;14.300;2023-06-10T03:48:14;11.70;;;9.10;;
17592;SDS011;8915;51.760;14.300;2023-06-10T03:50:46;12.50;;;9.87;;
17592;SDS011;8915;51.760;14.300;2023-06-10T03:53:15;11.03;;;9.37;;
17592;SDS011;8915;51.760;14.300;2023-06-10T03:55:44;13.47;;;10.10;;
17592;SDS011;8915;51.760;14.300;2023-06-10T03:58:11;12.97;;;10.33;;
17592;SDS011;8915;51.760;14.300;2023-06-10T04:00:41;10.70;;;9.13;;
17592;SDS011;8915;51.760;14.300;2023-06-10T04:03:07;10.53;;;9.43;;
17592;SDS011;8915;51.760;14.300;2023-06-10T04:05:42;11.57;;;9.57;;
17592;SDS011;8915;51.760;14.300;2023-06-10T04:08:08;12.20;;;10.00;;
17592;SDS011;8915;51.760;14.300;2023-06-10T04:10:35;14.40;;;10.63;;
17592;SDS011;8915;51.760;14.300;2023-06-10T04:13:03;11.90;;;10.57;;
17592;SDS011;8915;51.760;14.300;2023-06-10T04:15:34;18.10;;;10.70;;
17592;SDS011;8915;51.760;14.300;2023-06-10T04:18:06;15.00;;;10.37;;
17592;SDS011;8915;51.760;14.300;2023-06-10T04:20:33;13.07;;;10.60;;
17592;SDS011;8915;51.760;14.300;2023-06-10T04:22:59;14.73;;;10.17;;
17592;SDS011;8915;51.760;14.300;2023-06-10T04:25:27;14.07;;;10.40;;
17592;SDS011;8915;51.760;14.300;2023-06-10T04:27:54;13.93;;;10.60;;
17592;SDS011;8915;51.760;14.300;2023-06-10T04:30:21;13.83;;;10.47;;
17592;SDS011;8915;51.760;14.300;2023-06-10T04:32:49;11.73;;;10.27;;
17592;SDS011;8915;51.760;14.300;2023-06-10T04:35:17;16.90;;;10.20;;
17592;SDS011;8915;51.760;14.300;2023-06-10T04:37:45;11.80;;;10.30;;
17592;SDS011;8915;51.760;14.300;2023-06-10T04:40:12;10.90;;;9.67;;
17592;SDS011;8915;51.760;14.300;2023-06-10T04:42:39;13.70;;;10.03;;
17592;SDS011;8915;51.760;14.300;2023-06-10T04:45:10;11.83;;;10.20;;
17592;SDS011;8915;51.760;14.300;2023-06-10T04:47:38;13.20;;;10.17;;
17592;SDS011;8915;51.760;14.300;2023-06-10T04:50:05;12.00;;;9.83;;
17592;SDS011;8915;51.760;14.300;2023-06-10T04:52:32;16.17;;;10.27;;
17592;SDS011;8915;51.760;14.300;2023-06-10T04:54:59;13.00;;;10.17;;
17592;SDS011;8915;51.760;14.300;2023-06-10T04:57:25;11.40;;;10.03;;
17592;SDS011;8915;51.760;14.300;2023-06-10T04:59:52;14.83;;;10.30;;
17592;SDS011;8915;51.760;14.300;2023-06-10T05:02:18;12.17;;;10.23;;
17592;SDS011;8915;51.760;14.300;2023-06-10T05:04:49;13.43;;;10.57;;
17592;SDS011;8915;51.760;14.300;2023-06-10T05:07:15;11.57;;;9.43;;
17592;SDS011;8915;51.760;14.300;2023-06-10T05:09:41;12.97;;;10.30;;
17592;SDS011;8915;51.760;14.300;2023-06-10T05:12:08;11.83;;;10.37;;
17592;SDS011;8915;51.760;14.300;2023-06-10T05:14:35;12.30;;;10.30;;
17592;SDS011;8915;51.760;14.300;2023-06-10T05:17:01;15.17;;;11.30;;
17592;SDS011;8915;51.760;14.300;2023-06-10T05:19:27;11.33;;;10.13;;
17592;SDS011;8915;51.760;14.300;2023-06-10T05:21:55;15.43;;;11.13;;
17592;SDS011;8915;51.760;14.300;2023-06-10T05:24:21;14.50;;;10.67;;
17592;SDS011;8915;51.760;14.300;2023-06-10T05:26:48;18.00;;;10.80;;
17592;SDS011;8915;51.760;14.300;2023-06-10T05:29:14;12.87;;;10.70;;
17592;SDS011;8915;51.760;14.300;2023-06-10T05:31:41;13.60;;;11.10;;
17592;SDS011;8915;51.760;14.300;2023-06-10T05:34:07;12.77;;;10.20;;
17592;SDS011;8915;51.760;14.300;2023-06-10T05:36:34;13.10;;;10.87;;
17592;SDS011;8915;51.760;14.300;2023-06-10T05:39:02;11.73;;;10.53;;
17592;SDS011;8915;51.760;14.300;2023-06-10T05:41:30;11.83;;;10.63;;
17592;SDS011;8915;51.760;14.300;2023-06-10T05:43:56;15.07;;;11.23;;
17592;SDS011;8915;51.760;14.300;2023-06-10T05:46:22;12.20;;;10.80;;
17592;SDS011;8915;51.760;14.300;2023-06-10T05:48:49;12.03;;;10.83;;
17592;SDS011;8915;51.760;14.300;2023-06-10T05:51:15;16.80;;;11.10;;
17592;SDS011;8915;51.760;14.300;2023-06-10T05:53:42;12.33;;;11.07;;
17592;SDS011;8915;51.760;14.300;2023-06-10T05:56:09;11.97;;;10.77;;
17592;SDS011;8915;51.760;14.300;2023-06-10T05:58:36;13.73;;;11.63;;
17592;SDS011;8915;51.760;14.300;2023-06-10T06:01:02;12.50;;;11.20;;
17592;SDS011;8915;51.760;14.300;2023-06-10T06:03:29;15.07;;;11.60;;
17592;SDS011;8915;51.760;14.300;2023-06-10T06:05:55;12.30;;;11.00;;
17592;SDS011;8915;51.760;14.300;2023-06-10T06:08:21;13.53;;;10.80;;
17592;SDS011;8915;51.760;14.300;2023-06-10T06:10:48;13.53;;;11.37;;
17592;SDS011;8915;51.760;14.300;2023-06-10T06:13:25;12.17;;;10.60;;
17592;SDS011;8915;51.760;14.300;2023-06-10T06:15:51;12.53;;;10.97;;
17592;SDS011;8915;51.760;14.300;2023-06-10T06:18:17;12.40;;;11.20;;
17592;SDS011;8915;51.760;14.300;2023-06-10T06:20:44;12.13;;;10.90;;
17592;SDS011;8915;51.760;14.300;2023-06-10T06:23:10;13.53;;;10.57;;
17592;SDS011;8915;51.760;14.300;2023-06-10T06:25:37;13.23;;;10.53;;
17592;SDS011;8915;51.760;14.300;2023-06-10T06:28:04;13.40;;;10.47;;
17592;SDS011;8915;51.760;14.300;2023-06-10T06:30:32;12.00;;;10.70;;
17592;SDS011;8915;51.760;14.300;2023-06-10T06:32:58;12.87;;;10.63;;
17592;SDS011;8915;51.760;14.300;2023-06-10T06:35:24;17.17;;;10.70;;
17592;SDS011;8915;51.760;14.300;2023-06-10T06:37:51;12.77;;;11.03;;
17592;SDS011;8915;51.760;14.300;2023-06-10T06:40:22;13.37;;;12.07;;
17592;SDS011;8915;51.760;14.300;2023-06-10T06:42:49;12.60;;;10.93;;
17592;SDS011;8915;51.760;14.300;2023-06-10T06:45:21;12.20;;;10.93;;
17592;SDS011;8915;51.760;14.300;2023-06-10T06:47:49;12.23;;;10.53;;
17592;SDS011;8915;51.760;14.300;2023-06-10T06:50:16;12.77;;;10.83;;
17592;SDS011;8915;51.760;14.300;2023-06-10T06:52:42;11.43;;;10.23;;
17592;SDS011;8915;51.760;14.300;2023-06-10T06:55:09;14.00;;;10.70;;
17592;SDS011;8915;51.760;14.300;2023-06-10T06:57:36;13.47;;;9.90;;
17592;SDS011;8915;51.760;14.300;2023-06-10T07:00:03;16.07;;;10.77;;
17592;SDS011;8915;51.760;14.300;2023-06-10T07:02:33;13.13;;;11.47;;
17592;SDS011;8915;51.760;14.300;2023-06-10T07:05:01;12.37;;;9.67;;
17592;SDS011;8915;51.760;14.300;2023-06-10T07:07:28;14.83;;;10.27;;
17592;SDS011;8915;51.760;14.300;2023-06-10T07:09:54;19.77;;;10.27;;
17592;SDS011;8915;51.760;14.300;2023-06-10T07:12:21;10.83;;;9.77;;
17592;SDS011;8915;51.760;14.300;2023-06-10T07:14:49;13.53;;;9.53;;
17592;SDS011;8915;51.760;14.300;2023-06-10T07:17:15;10.93;;;9.07;;
17592;SDS011;8915;51.760;14.300;2023-06-10T07:19:42;11.77;;;9.43;;
17592;SDS011;8915;51.760;14.300;2023-06-10T07:22:10;15.27;;;9.73;;
17592;SDS011;8915;51.760;14.300;2023-06-10T07:24:37;11.37;;;9.90;;
17592;SDS011;8915;51.760;14.300;2023-06-10T07:27:03;10.73;;;9.63;;
17592;SDS011;8915;51.760;14.300;2023-06-10T07:29:30;12.37;;;9.23;;
17592;SDS011;8915;51.760;14.300;2023-06-10T07:31:57;11.60;;;9.43;;
17592;SDS011;8915;51.760;14.300;2023-06-10T07:34:23;15.37;;;10.20;;
17592;SDS011;8915;51.760;14.300;2023-06-10T07:36:49;12.80;;;9.57;;
17592;SDS011;8915;51.760;14.300;2023-06-10T07:39:17;12.00;;;9.55;;
17592;SDS011;8915;51.760;14.300;2023-06-10T07:41:43;11.65;;;9.20;;
17592;SDS011;8915;51.760;14.300;2023-06-10T07:44:10;10.57;;;9.50;;
17592;SDS011;8915;51.760;14.300;2023-06-10T07:46:36;11.43;;;9.07;;
17592;SDS011;8915;51.760;14.300;2023-06-10T07:49:03;9.90;;;9.00;;
17592;SDS011;8915;51.760;14.300;2023-06-10T07:51:29;13.15;;;9.30;;
17592;SDS011;8915;51.760;14.300;2023-06-10T07:53:55;15.50;;;9.05;;
17592;SDS011;8915;51.760;14.300;2023-06-10T07:56:23;9.70;;;8.80;;
17592;SDS011;8915;51.760;14.300;2023-06-10T07:58:51;10.32;;;9.32;;
17592;SDS011;8915;51.760;14.300;2023-06-10T08:01:20;10.05;;;9.15;;
17592;SDS011;8915;51.760;14.300;2023-06-10T08:03:48;10.88;;;9.00;;
17592;SDS011;8915;51.760;14.300;2023-06-10T08:06:14;10.73;;;8.65;;
17592;SDS011;8915;51.760;14.300;2023-06-10T08:08:42;14.88;;;9.40;;
17592;SDS011;8915;51.760;14.300;2023-06-10T08:11:08;9.38;;;8.43;;
17592;SDS011;8915;51.760;14.300;2023-06-10T08:13:37;11.70;;;9.35;;
17592;SDS011;8915;51.760;14.300;2023-06-10T08:16:04;12.80;;;9.07;;
17592;SDS011;8915;51.760;14.300;2023-06-10T08:18:31;9.93;;;8.82;;
17592;SDS011;8915;51.760;14.300;2023-06-10T08:20:57;10.32;;;9.10;;
17592;SDS011;8915;51.760;14.300;2023-06-10T08:23:24;9.73;;;8.68;;
17592;SDS011;8915;51.760;14.300;2023-06-10T08:25:50;10.27;;;9.02;;
17592;SDS011;8915;51.760;14.300;2023-06-10T08:28:17;13.15;;;8.95;;
17592;SDS011;8915;51.760;14.300;2023-06-10T08:30:46;11.35;;;9.35;;
17592;SDS011;8915;51.760;14.300;2023-06-10T08:33:12;11.35;;;9.40;;
17592;SDS011;8915;51.760;14.300;2023-06-10T08:35:38;10.63;;;9.52;;
17592;SDS011;8915;51.760;14.300;2023-06-10T08:38:05;10.40;;;8.82;;
17592;SDS011;8915;51.760;14.300;2023-06-10T08:40:32;9.52;;;8.63;;
17592;SDS011;8915;51.760;14.300;2023-06-10T08:43:00;12.80;;;8.23;;
17592;SDS011;8915;51.760;14.300;2023-06-10T08:45:32;10.55;;;8.63;;
17592;SDS011;8915;51.760;14.300;2023-06-10T08:48:03;8.55;;;7.75;;
17592;SDS011;8915;51.760;14.300;2023-06-10T08:50:33;8.38;;;7.22;;
17592;SDS011;8915;51.760;14.300;2023-06-10T08:53:02;8.27;;;6.95;;
17592;SDS011;8915;51.760;14.300;2023-06-10T08:55:31;10.50;;;7.10;;
17592;SDS011;8915;51.760;14.300;2023-06-10T08:58:00;9.35;;;6.65;;
17592;SDS011;8915;51.760;14.300;2023-06-10T09:00:27;7.57;;;6.70;;
17592;SDS011;8915;51.760;14.300;2023-06-10T09:02:57;7.30;;;6.57;;
17592;SDS011;8915;51.760;14.300;2023-06-10T09:05:26;11.93;;;6.72;;
17592;SDS011;8915;51.760;14.300;2023-06-10T09:07:53;7.90;;;6.03;;
17592;SDS011;8915;51.760;14.300;2023-06-10T09:10:22;7.50;;;6.78;;
17592;SDS011;8915;51.760;14.300;2023-06-10T09:12:50;6.85;;;6.18;;
17592;SDS011;8915;51.760;14.300;2023-06-10T09:15:16;8.93;;;6.57;;
17592;SDS011;8915;51.760;14.300;2023-06-10T09:17:43;8.70;;;6.15;;
17592;SDS011;8915;51.760;14.300;2023-06-10T09:20:10;7.15;;;6.28;;
17592;SDS011;8915;51.760;14.300;2023-06-10T09:22:38;7.97;;;5.97;;
17592;SDS011;8915;51.760;14.300;2023-06-10T09:25:05;8.68;;;6.03;;
17592;SDS011;8915;51.760;14.300;2023-06-10T09:27:34;8.68;;;6.18;;
17592;SDS011;8915;51.760;14.300;2023-06-10T09:30:10;10.20;;;5.78;;
17592;SDS011;8915;51.760;14.300;2023-06-10T09:32:49;5.97;;;5.47;;
17592;SDS011;8915;51.760;14.300;2023-06-10T09:35:15;6.60;;;5.90;;
17592;SDS011;8915;51.760;14.300;2023-06-10T09:37:43;8.73;;;5.50;;
17592;SDS011;8915;51.760;14.300;2023-06-10T09:40:11;6.82;;;5.20;;
17592;SDS011;8915;51.760;14.300;2023-06-10T09:42:38;7.05;;;5.35;;
17592;SDS011;8915;51.760;14.300;2023-06-10T09:45:05;5.88;;;5.28;;
17592;SDS011;8915;51.760;14.300;2023-06-10T09:47:33;6.20;;;5.60;;
17592;SDS011;8915;51.760;14.300;2023-06-10T09:49:59;9.07;;;5.38;;
17592;SDS011;8915;51.760;14.300;2023-06-10T09:52:27;7.78;;;5.40;;
17592;SDS011;8915;51.760;14.300;2023-06-10T09:55:00;8.95;;;5.70;;
17592;SDS011;8915;51.760;14.300;2023-06-10T09:57:30;6.50;;;5.78;;
17592;SDS011;8915;51.760;14.300;2023-06-10T09:59:58;6.15;;;5.55;;
17592;SDS011;8915;51.760;14.300;2023-06-10T10:02:25;6.85;;;5.40;;
17592;SDS011;8915;51.760;14.300;2023-06-10T10:04:51;7.25;;;5.35;;
17592;SDS011;8915;51.760;14.300;2023-06-10T10:07:18;5.55;;;4.90;;
17592;SDS011;8915;51.760;14.300;2023-06-10T10:09:45;8.02;;;5.20;;
17592;SDS011;8915;51.760;14.300;2023-06-10T10:12:14;11.82;;;5.63;;
17592;SDS011;8915;51.760;14.300;2023-06-10T10:14:43;7.63;;;5.25;;
17592;SDS011;8915;51.760;14.300;2023-06-10T10:17:15;7.45;;;5.32;;
17592;SDS011;8915;51.760;14.300;2023-06-10T10:19:43;9.10;;;5.35;;
17592;SDS011;8915;51.760;14.300;2023-06-10T10:22:15;6.05;;;4.55;;
17592;SDS011;8915;51.760;14.300;2023-06-10T10:24:46;8.35;;;5.35;;
17592;SDS011;8915;51.760;14.300;2023-06-10T10:27:18;6.63;;;5.60;;
17592;SDS011;8915;51.760;14.300;2023-06-10T10:29:48;6.40;;;5.40;;
17592;SDS011;8915;51.760;14.300;2023-06-10T10:32:21;7.28;;;5.07;;
17592;SDS011;8915;51.760;14.300;2023-06-10T10:34:53;7.35;;;5.00;;
17592;SDS011;8915;51.760;14.300;2023-06-10T10:37:27;7.05;;;4.80;;
17592;SDS011;8915;51.760;14.300;2023-06-10T10:39:54;5.63;;;4.90;;
17592;SDS011;8915;51.760;14.300;2023-06-10T10:42:23;6.78;;;4.88;;
17592;SDS011;8915;51.760;14.300;2023-06-10T10:44:50;7.30;;;5.20;;
17592;SDS011;8915;51.760;14.300;2023-06-10T10:47:17;5.72;;;5.13;;
17592;SDS011;8915;51.760;14.300;2023-06-10T10:49:47;6.95;;;5.13;;
17592;SDS011;8915;51.760;14.300;2023-06-10T10:52:16;7.85;;;5.18;;
17592;SDS011;8915;51.760;14.300;2023-06-10T10:54:43;6.10;;;5.32;;
17592;SDS011;8915;51.760;14.300;2023-06-10T10:57:12;6.65;;;4.60;;
17592;SDS011;8915;51.760;14.300;2023-06-10T10:59:44;5.93;;;4.85;;
17592;SDS011;8915;51.760;14.300;2023-06-10T11:05:19;7.05;;;4.80;;
17592;SDS011;8915;51.760;14.300;2023-06-10T11:07:57;6.70;;;4.97;;
17592;SDS011;8915;51.760;14.300;2023-06-10T11:10:29;5.82;;;5.25;;
17592;SDS011;8915;51.760;14.300;2023-06-10T11:12:56;5.60;;;5.03;;
17592;SDS011;8915;51.760;14.300;2023-06-10T11:15:25;5.00;;;4.43;;
17592;SDS011;8915;51.760;14.300;2023-06-10T11:18:07;6.95;;;4.70;;
17592;SDS011;8915;51.760;14.300;2023-06-10T11:20:54;6.13;;;4.90;;
17592;SDS011;8915;51.760;14.300;2023-06-10T11:23:35;5.38;;;4.88;;
17592;SDS011;8915;51.760;14.300;2023-06-10T11:26:11;8.32;;;4.93;;
17592;SDS011;8915;51.760;14.300;2023-06-10T11:29:03;6.38;;;5.10;;
17592;SDS011;8915;51.760;14.300;2023-06-10T11:31:38;7.22;;;5.15;;
17592;SDS011;8915;51.760;14.300;2023-06-10T11:34:06;5.95;;;4.47;;
17592;SDS011;8915;51.760;14.300;2023-06-10T11:36:34;6.40;;;4.90;;
17592;SDS011;8915;51.760;14.300;2023-06-10T11:39:10;5.22;;;4.50;;
17592;SDS011;8915;51.760;14.300;2023-06-10T11:41:38;7.90;;;5.00;;
17592;SDS011;8915;51.760;14.300;2023-06-10T11:44:07;7.53;;;5.10;;
17592;SDS011;8915;51.760;14.300;2023-06-10T11:46:36;8.30;;;4.80;;
17592;SDS011;8915;51.760;14.300;2023-06-10T11:49:03;4.70;;;4.30;;
17592;SDS011;8915;51.760;14.300;2023-06-10T11:51:32;7.28;;;3.75;;
17592;SDS011;8915;51.760;14.300;2023-06-10T11:54:00;7.47;;;3.60;;
17592;SDS011;8915;51.760;14.300;2023-06-10T11:56:28;6.78;;;4.07;;
17592;SDS011;8915;51.760;14.300;2023-06-10T11:58:56;5.53;;;3.90;;
17592;SDS011;8915;51.760;14.300;2023-06-10T12:01:24;10.95;;;4.05;;
17592;SDS011;8915;51.760;14.300;2023-06-10T12:04:00;6.30;;;3.70;;
17592;SDS011;8915;51.760;14.300;2023-06-10T12:06:37;4.80;;;4.13;;
17592;SDS011;8915;51.760;14.300;2023-06-10T12:09:04;5.45;;;4.05;;
17592;SDS011;8915;51.760;14.300;2023-06-10T12:11:31;7.63;;;4.05;;
17592;SDS011;8915;51.760;14.300;2023-06-10T12:13:57;4.30;;;3.90;;
17592;SDS011;8915;51.760;14.300;2023-06-10T12:16:23;7.15;;;4.60;;
17592;SDS011;8915;51.760;14.300;2023-06-10T12:18:50;7.35;;;5.18;;
17592;SDS011;8915;51.760;14.300;2023-06-10T12:21:19;6.30;;;4.78;;
17592;SDS011;8915;51.760;14.300;2023-06-10T12:24:02;6.65;;;4.50;;
17592;SDS011;8915;51.760;14.300;2023-06-10T12:26:34;5.93;;;4.75;;
17592;SDS011;8915;51.760;14.300;2023-06-10T12:29:20;6.57;;;4.93;;
17592;SDS011;8915;51.760;14.300;2023-06-10T12:31:55;5.63;;;4.57;;
17592;SDS011;8915;51.760;14.300;2023-06-10T12:34:29;8.75;;;4.68;;
17592;SDS011;8915;51.760;14.300;2023-06-10T12:37:00;6.20;;;4.85;;
17592;SDS011;8915;51.760;14.300;2023-06-10T12:39:28;6.38;;;4.93;;
17592;SDS011;8915;51.760;14.300;2023-06-10T12:41:54;6.57;;;5.25;;
17592;SDS011;8915;51.760;14.300;2023-06-10T12:44:30;6.68;;;5.43;;
17592;SDS011;8915;51.760;14.300;2023-06-10T12:46:58;6.43;;;5.43;;
17592;SDS011;8915;51.760;14.300;2023-06-10T12:49:24;6.88;;;5.22;;
17592;SDS011;8915;51.760;14.300;2023-06-10T12:51:51;5.53;;;5.00;;
17592;SDS011;8915;51.760;14.300;2023-06-10T12:54:19;8.32;;;5.80;;
17592;SDS011;8915;51.760;14.300;2023-06-10T12:56:45;6.00;;;4.88;;
17592;SDS011;8915;51.760;14.300;2023-06-10T12:59:14;5.70;;;5.03;;
17592;SDS011;8915;51.760;14.300;2023-06-10T13:01:40;6.55;;;5.35;;
17592;SDS011;8915;51.760;14.300;2023-06-10T13:04:07;6.95;;;5.45;;
17592;SDS011;8915;51.760;14.300;2023-06-10T13:06:33;5.75;;;5.18;;
17592;SDS011;8915;51.760;14.300;2023-06-10T13:09:02;5.65;;;5.00;;
17592;SDS011;8915;51.760;14.300;2023-06-10T13:11:30;6.22;;;5.57;;
17592;SDS011;8915;51.760;14.300;2023-06-10T13:13:57;6.65;;;5.80;;
17592;SDS011;8915;51.760;14.300;2023-06-10T13:16:23;6.00;;;5.40;;
17592;SDS011;8915;51.760;14.300;2023-06-10T13:18:50;8.38;;;5.40;;
17592;SDS011;8915;51.760;14.300;2023-06-10T13:21:18;6.10;;;5.50;;
17592;SDS011;8915;51.760;14.300;2023-06-10T13:23:45;6.70;;;5.70;;
17592;SDS011;8915;51.760;14.300;2023-06-10T13:26:12;6.90;;;5.72;;
17592;SDS011;8915;51.760;14.300;2023-06-10T13:28:40;5.85;;;5.35;;
17592;SDS011;8915;51.760;14.300;2023-06-10T13:31:06;8.68;;;5.00;;
17592;SDS011;8915;51.760;14.300;2023-06-10T13:33:33;6.68;;;5.18;;
17592;SDS011;8915;51.760;14.300;2023-06-10T13:35:59;7.38;;;5.70;;
17592;SDS011;8915;51.760;14.300;2023-06-10T13:38:25;6.88;;;5.05;;
17592;SDS011;8915;51.760;14.300;2023-06-10T13:40:52;8.93;;;5.40;;
17592;SDS011;8915;51.760;14.300;2023-06-10T13:43:18;6.47;;;4.68;;
17592;SDS011;8915;51.760;14.300;2023-06-10T13:45:46;9.35;;;4.50;;
17592;SDS011;8915;51.760;14.300;2023-06-10T13:48:12;7.18;;;4.22;;
17592;SDS011;8915;51.760;14.300;2023-06-10T13:50:39;4.75;;;3.88;;
17592;SDS011;8915;51.760;14.300;2023-06-10T13:53:05;5.00;;;3.80;;
17592;SDS011;8915;51.760;14.300;2023-06-10T13:55:31;6.55;;;3.97;;
17592;SDS011;8915;51.760;14.300;2023-06-10T13:57:58;4.53;;;3.88;;
17592;SDS011;8915;51.760;14.300;2023-06-10T14:00:24;4.30;;;3.45;;
17592;SDS011;8915;51.760;14.300;2023-06-10T14:02:53;4.00;;;3.55;;
17592;SDS011;8915;51.760;14.300;2023-06-10T14:05:20;5.15;;;3.58;;
17592;SDS011;8915;51.760;14.300;2023-06-10T14:07:46;5.35;;;3.97;;
17592;SDS011;8915;51.760;14.300;2023-06-10T14:10:13;5.32;;;4.57;;
17592;SDS011;8915;51.760;14.300;2023-06-10T14:12:39;6.55;;;4.60;;
17592;SDS011;8915;51.760;14.300;2023-06-10T14:15:06;6.53;;;4.60;;
17592;SDS011;8915;51.760;14.300;2023-06-10T14:17:33;7.55;;;4.93;;
17592;SDS011;8915;51.760;14.300;2023-06-10T14:20:01;6.07;;;4.43;;
17592;SDS011;8915;51.760;14.300;2023-06-10T14:22:27;6.25;;;4.80;;
17592;SDS011;8915;51.760;14.300;2023-06-10T14:24:53;8.20;;;5.07;;
17592;SDS011;8915;51.760;14.300;2023-06-10T14:27:20;6.55;;;4.50;;
17592;SDS011;8915;51.760;14.300;2023-06-10T14:29:46;11.32;;;4.75;;
17592;SDS011;8915;51.760;14.300;2023-06-10T14:32:13;9.10;;;5.03;;
17592;SDS011;8915;51.760;14.300;2023-06-10T14:34:39;7.72;;;4.78;;
17592;SDS011;8915;51.760;14.300;2023-06-10T14:37:08;5.40;;;4.60;;
17592;SDS011;8915;51.760;14.300;2023-06-10T14:39:34;5.18;;;4.63;;
17592;SDS011;8915;51.760;14.300;2023-06-10T14:42:01;5.50;;;4.60;;
17592;SDS011;8915;51.760;14.300;2023-06-10T14:44:27;5.72;;;4.82;;
17592;SDS011;8915;51.760;14.300;2023-06-10T14:46:54;10.27;;;4.78;;